sensor_id;sensor_type;location;lat;lon;timestamp;pressure;altitude;pressure_sealevel;temperature;humidity
26865;BME280;40618;51.166;10.322;2022-07-04T00:02:10;97617.81;;;19.89;48.34
26865;BME280;40618;51.166;10.322;2022-07-04T00:04:41;97614.06;;;19.93;48.51
26865;BME280;40618;51.166;10.322;2022-07-04T00:07:14;97610.66;;;19.91;48.53
26865;BME280;40618;51.166;10.322;2022-07-04T00:09:45;97609.63;;;19.94;48.37
26865;BME280;40618;51.166;10.322;2022-07-04T00:12:17;97614.28;;;19.76;48.55
26865;BME280;40618;51.166;10.322;2022-07-04T00:14:49;97620.22;;;19.65;48.72
26865;BME280;40618;51.166;10.322;2022-07-04T00:17:21;97615.84;;;19.66;48.80
26865;BME280;40618;51.166;10.322;2022-07-04T00:19:53;97617.94;;;19.73;49.14
26865;BME280;40618;51.166;10.322;2022-07-04T00:22:25;97623.97;;;19.75;48.93
26865;BME280;40618;51.166;10.322;2022-07-04T00:24:57;97627.19;;;19.66;48.92
26865;BME280;40618;51.166;10.322;2022-07-04T00:27:28;97606.16;;;19.66;48.96
26865;BME280;40618;51.166;10.322;2022-07-04T00:30:00;97618.63;;;19.62;49.22
26865;BME280;40618;51.166;10.322;2022-07-04T00:32:33;97617.50;;;19.67;49.23
26865;BME280;40618;51.166;10.322;2022-07-04T00:35:05;97623.78;;;19.64;49.34
26865;BME280;40618;51.166;10.322;2022-07-04T00:37:38;97617.59;;;19.65;49.02
26865;BME280;40618;51.166;10.322;2022-07-04T00:40:10;97622.22;;;19.61;49.34
26865;BME280;40618;51.166;10.322;2022-07-04T00:42:42;97621.66;;;19.56;49.38
26865;BME280;40618;51.166;10.322;2022-07-04T00:45:14;97625.47;;;19.38;49.48
26865;BME280;40618;51.166;10.322;2022-07-04T00:47:46;97630.56;;;19.26;49.68
26865;BME280;40618;51.166;10.322;2022-07-04T00:50:18;97637.50;;;19.13;49.55
26865;BME280;40618;51.166;10.322;2022-07-04T00:52:49;97624.75;;;18.92;49.94
26865;BME280;40618;51.166;10.322;2022-07-04T00:55:23;97636.19;;;18.91;50.17
26865;BME280;40618;51.166;10.322;2022-07-04T00:57:55;97633.47;;;18.93;50.33
26865;BME280;40618;51.166;10.322;2022-07-04T01:00:27;97629.81;;;18.96;50.37
26865;BME280;40618;51.166;10.322;2022-07-04T01:02:59;97638.06;;;19.04;50.56
26865;BME280;40618;51.166;10.322;2022-07-04T01:05:31;97640.22;;;19.11;50.33
26865;BME280;40618;51.166;10.322;2022-07-04T01:08:03;97636.66;;;19.13;50.32
26865;BME280;40618;51.166;10.322;2022-07-04T01:10:36;97633.00;;;19.01;50.21
26865;BME280;40618;51.166;10.322;2022-07-04T01:13:07;97630.38;;;19.01;50.34
26865;BME280;40618;51.166;10.322;2022-07-04T01:15:45;97640.22;;;18.97;50.62
26865;BME280;40618;51.166;10.322;2022-07-04T01:18:17;97652.88;;;19.05;50.85
26865;BME280;40618;51.166;10.322;2022-07-04T01:20:49;97661.13;;;18.99;50.62
26865;BME280;40618;51.166;10.322;2022-07-04T01:23:21;97657.75;;;18.97;50.71
26865;BME280;40618;51.166;10.322;2022-07-04T01:25:53;97663.28;;;18.92;50.63
26865;BME280;40618;51.166;10.322;2022-07-04T01:28:25;97661.84;;;18.86;50.67
26865;BME280;40618;51.166;10.322;2022-07-04T01:30:57;97662.78;;;18.85;50.92
26865;BME280;40618;51.166;10.322;2022-07-04T01:33:29;97664.94;;;18.78;50.90
26865;BME280;40618;51.166;10.322;2022-07-04T01:36:01;97660.41;;;18.81;51.09
26865;BME280;40618;51.166;10.322;2022-07-04T01:38:33;97659.22;;;18.86;51.22
26865;BME280;40618;51.166;10.322;2022-07-04T01:41:04;97653.72;;;18.91;51.04
26865;BME280;40618;51.166;10.322;2022-07-04T01:43:36;97665.81;;;18.93;51.19
26865;BME280;40618;51.166;10.322;2022-07-04T01:46:08;97664.59;;;18.99;51.12
26865;BME280;40618;51.166;10.322;2022-07-04T01:48:40;97668.06;;;19.00;51.27
26865;BME280;40618;51.166;10.322;2022-07-04T01:51:12;97652.22;;;19.01;51.27
26865;BME280;40618;51.166;10.322;2022-07-04T01:53:43;97657.56;;;19.00;51.25
26865;BME280;40618;51.166;10.322;2022-07-04T01:56:15;97654.84;;;19.01;51.20
26865;BME280;40618;51.166;10.322;2022-07-04T01:58:47;97654.28;;;18.96;50.98
26865;BME280;40618;51.166;10.322;2022-07-04T02:01:19;97665.91;;;18.92;51.16
26865;BME280;40618;51.166;10.322;2022-07-04T02:04:02;97671.47;;;18.86;51.18
26865;BME280;40618;51.166;10.322;2022-07-04T02:06:35;97667.16;;;18.85;51.38
26865;BME280;40618;51.166;10.322;2022-07-04T02:09:07;97664.75;;;18.82;51.41
26865;BME280;40618;51.166;10.322;2022-07-04T02:11:48;97661.38;;;18.80;51.23
26865;BME280;40618;51.166;10.322;2022-07-04T02:14:38;97667.34;;;18.82;51.56
26865;BME280;40618;51.166;10.322;2022-07-04T02:17:12;97666.34;;;18.84;51.39
26865;BME280;40618;51.166;10.322;2022-07-04T02:19:44;97666.34;;;18.84;51.41
26865;BME280;40618;51.166;10.322;2022-07-04T02:22:16;97668.88;;;18.86;51.33
26865;BME280;40618;51.166;10.322;2022-07-04T02:24:48;97680.56;;;18.80;51.37
26865;BME280;40618;51.166;10.322;2022-07-04T02:27:21;97686.25;;;18.58;51.29
26865;BME280;40618;51.166;10.322;2022-07-04T02:29:52;97691.00;;;18.51;51.74
26865;BME280;40618;51.166;10.322;2022-07-04T02:32:24;97691.94;;;18.50;51.83
26865;BME280;40618;51.166;10.322;2022-07-04T02:34:56;97688.38;;;18.51;51.60
26865;BME280;40618;51.166;10.322;2022-07-04T02:37:28;97686.22;;;18.43;51.94
26865;BME280;40618;51.166;10.322;2022-07-04T02:40:00;97693.03;;;18.32;51.81
26865;BME280;40618;51.166;10.322;2022-07-04T02:42:32;97699.28;;;18.29;51.96
26865;BME280;40618;51.166;10.322;2022-07-04T02:45:05;97694.03;;;18.29;52.27
26865;BME280;40618;51.166;10.322;2022-07-04T02:47:37;97697.16;;;18.36;52.10
26865;BME280;40618;51.166;10.322;2022-07-04T02:50:09;97699.31;;;18.43;52.18
26865;BME280;40618;51.166;10.322;2022-07-04T02:52:41;97697.56;;;18.44;52.04
26865;BME280;40618;51.166;10.322;2022-07-04T02:55:13;97702.22;;;18.39;52.29
26865;BME280;40618;51.166;10.322;2022-07-04T02:57:44;97710.59;;;18.30;52.13
26865;BME280;40618;51.166;10.322;2022-07-04T03:00:16;97703.44;;;18.17;52.05
26865;BME280;40618;51.166;10.322;2022-07-04T03:02:48;97717.84;;;18.10;52.31
26865;BME280;40618;51.166;10.322;2022-07-04T03:05:20;97714.81;;;18.02;52.59
26865;BME280;40618;51.166;10.322;2022-07-04T03:07:52;97710.81;;;17.95;52.58
26865;BME280;40618;51.166;10.322;2022-07-04T03:10:24;97721.53;;;17.90;52.52
26865;BME280;40618;51.166;10.322;2022-07-04T03:12:56;97720.28;;;17.81;52.93
26865;BME280;40618;51.166;10.322;2022-07-04T03:15:27;97719.69;;;17.76;52.75
26865;BME280;40618;51.166;10.322;2022-07-04T03:17:59;97722.81;;;17.67;52.94
26865;BME280;40618;51.166;10.322;2022-07-04T03:20:31;97725.59;;;17.64;52.75
26865;BME280;40618;51.166;10.322;2022-07-04T03:23:03;97719.84;;;17.57;53.01
26865;BME280;40618;51.166;10.322;2022-07-04T03:25:35;97728.97;;;17.50;53.13
26865;BME280;40618;51.166;10.322;2022-07-04T03:28:07;97726.22;;;17.35;53.06
26865;BME280;40618;51.166;10.322;2022-07-04T03:30:39;97722.00;;;17.33;53.55
26865;BME280;40618;51.166;10.322;2022-07-04T03:33:11;97727.31;;;17.31;53.14
26865;BME280;40618;51.166;10.322;2022-07-04T03:35:43;97732.47;;;17.33;53.17
26865;BME280;40618;51.166;10.322;2022-07-04T03:38:15;97737.47;;;17.37;53.72
26865;BME280;40618;51.166;10.322;2022-07-04T03:40:46;97730.19;;;17.42;53.54
26865;BME280;40618;51.166;10.322;2022-07-04T03:43:18;97734.84;;;17.37;53.41
26865;BME280;40618;51.166;10.322;2022-07-04T03:45:50;97726.56;;;17.29;53.69
26865;BME280;40618;51.166;10.322;2022-07-04T03:48:22;97731.94;;;17.26;53.72
26865;BME280;40618;51.166;10.322;2022-07-04T03:50:54;97733.91;;;17.22;53.88
26865;BME280;40618;51.166;10.322;2022-07-04T03:53:26;97734.66;;;17.24;54.05
26865;BME280;40618;51.166;10.322;2022-07-04T03:55:58;97733.72;;;17.25;53.96
26865;BME280;40618;51.166;10.322;2022-07-04T03:58:30;97734.97;;;17.18;53.55
26865;BME280;40618;51.166;10.322;2022-07-04T04:01:02;97739.81;;;17.08;53.84
26865;BME280;40618;51.166;10.322;2022-07-04T04:03:34;97735.84;;;17.01;53.88
26865;BME280;40618;51.166;10.322;2022-07-04T04:06:24;97742.94;;;16.99;53.86
26865;BME280;40618;51.166;10.322;2022-07-04T04:08:56;97739.53;;;16.97;54.19
26865;BME280;40618;51.166;10.322;2022-07-04T04:11:28;97748.47;;;16.93;54.03
26865;BME280;40618;51.166;10.322;2022-07-04T04:14:01;97750.41;;;16.89;54.51
26865;BME280;40618;51.166;10.322;2022-07-04T04:16:34;97753.06;;;16.88;54.70
26865;BME280;40618;51.166;10.322;2022-07-04T04:19:06;97751.38;;;16.87;54.69
26865;BME280;40618;51.166;10.322;2022-07-04T04:21:37;97749.78;;;16.84;nan
26865;BME280;40618;51.166;10.322;2022-07-04T04:24:09;97761.94;;;16.85;54.85
26865;BME280;40618;51.166;10.322;2022-07-04T04:26:41;97754.13;;;16.84;54.32
26865;BME280;40618;51.166;10.322;2022-07-04T04:29:13;97750.69;;;16.83;54.47
26865;BME280;40618;51.166;10.322;2022-07-04T04:31:45;97761.38;;;16.79;54.70
26865;BME280;40618;51.166;10.322;2022-07-04T04:34:16;97767.53;;;16.78;54.91
26865;BME280;40618;51.166;10.322;2022-07-04T04:36:48;97774.47;;;16.79;54.61
26865;BME280;40618;51.166;10.322;2022-07-04T04:39:20;97779.75;;;16.77;54.82
26865;BME280;40618;51.166;10.322;2022-07-04T04:41:52;97774.59;;;16.75;54.93
26865;BME280;40618;51.166;10.322;2022-07-04T04:44:24;97769.28;;;16.77;55.07
26865;BME280;40618;51.166;10.322;2022-07-04T04:46:56;97773.59;;;16.78;55.38
26865;BME280;40618;51.166;10.322;2022-07-04T04:49:27;97770.22;;;16.76;55.11
26865;BME280;40618;51.166;10.322;2022-07-04T04:51:59;97768.53;;;16.75;55.40
26865;BME280;40618;51.166;10.322;2022-07-04T04:54:32;97768.44;;;16.77;55.71
26865;BME280;40618;51.166;10.322;2022-07-04T04:57:04;97770.91;;;16.80;55.47
26865;BME280;40618;51.166;10.322;2022-07-04T04:59:37;97769.91;;;16.82;55.98
26865;BME280;40618;51.166;10.322;2022-07-04T05:02:09;97769.78;;;16.85;55.53
26865;BME280;40618;51.166;10.322;2022-07-04T05:04:46;97770.47;;;16.89;55.62
26865;BME280;40618;51.166;10.322;2022-07-04T05:07:18;97761.63;;;16.91;55.61
26865;BME280;40618;51.166;10.322;2022-07-04T05:09:50;97771.84;;;16.96;55.60
26865;BME280;40618;51.166;10.322;2022-07-04T05:12:28;97762.25;;;16.97;55.75
26865;BME280;40618;51.166;10.322;2022-07-04T05:15:00;97774.41;;;16.98;56.18
26865;BME280;40618;51.166;10.322;2022-07-04T05:17:32;97771.56;;;17.02;56.39
26865;BME280;40618;51.166;10.322;2022-07-04T05:20:04;97775.63;;;17.08;55.99
26865;BME280;40618;51.166;10.322;2022-07-04T05:22:36;97770.56;;;17.05;55.88
26865;BME280;40618;51.166;10.322;2022-07-04T05:25:08;97776.09;;;16.99;55.87
26865;BME280;40618;51.166;10.322;2022-07-04T05:27:40;97782.31;;;16.96;56.20
26865;BME280;40618;51.166;10.322;2022-07-04T05:30:12;97784.19;;;16.94;56.26
26865;BME280;40618;51.166;10.322;2022-07-04T05:32:44;97783.19;;;16.97;56.60
26865;BME280;40618;51.166;10.322;2022-07-04T05:35:16;97787.34;;;17.01;56.58
26865;BME280;40618;51.166;10.322;2022-07-04T05:37:48;97778.56;;;17.02;56.37
26865;BME280;40618;51.166;10.322;2022-07-04T05:40:20;97785.47;;;17.03;56.47
26865;BME280;40618;51.166;10.322;2022-07-04T05:42:55;97792.22;;;17.07;56.16
26865;BME280;40618;51.166;10.322;2022-07-04T05:45:27;97790.41;;;17.09;56.88
26865;BME280;40618;51.166;10.322;2022-07-04T05:47:59;97786.78;;;17.12;56.56
26865;BME280;40618;51.166;10.322;2022-07-04T05:50:32;97794.38;;;17.16;56.42
26865;BME280;40618;51.166;10.322;2022-07-04T05:53:04;97790.59;;;17.22;56.84
26865;BME280;40618;51.166;10.322;2022-07-04T05:55:36;97798.81;;;17.32;56.51
26865;BME280;40618;51.166;10.322;2022-07-04T05:58:08;97795.81;;;17.39;56.23
26865;BME280;40618;51.166;10.322;2022-07-04T06:00:40;97802.91;;;17.37;56.27
26865;BME280;40618;51.166;10.322;2022-07-04T06:03:12;97797.88;;;17.50;56.35
26865;BME280;40618;51.166;10.322;2022-07-04T06:05:43;97808.59;;;17.62;56.22
26865;BME280;40618;51.166;10.322;2022-07-04T06:08:15;97805.19;;;17.77;56.20
26865;BME280;40618;51.166;10.322;2022-07-04T06:10:47;97816.31;;;17.98;55.94
26865;BME280;40618;51.166;10.322;2022-07-04T06:13:19;97815.63;;;18.10;55.63
26865;BME280;40618;51.166;10.322;2022-07-04T06:15:51;97821.28;;;18.19;55.35
26865;BME280;40618;51.166;10.322;2022-07-04T06:18:22;97821.88;;;18.24;55.11
26865;BME280;40618;51.166;10.322;2022-07-04T06:20:55;97815.13;;;18.20;54.89
26865;BME280;40618;51.166;10.322;2022-07-04T06:23:27;97817.84;;;18.18;54.99
26865;BME280;40618;51.166;10.322;2022-07-04T06:25:59;97825.19;;;18.27;54.66
26865;BME280;40618;51.166;10.322;2022-07-04T06:28:31;97824.09;;;18.32;55.00
26865;BME280;40618;51.166;10.322;2022-07-04T06:31:19;97830.09;;;18.34;54.49
26865;BME280;40618;51.166;10.322;2022-07-04T06:33:51;97824.16;;;18.30;54.51
26865;BME280;40618;51.166;10.322;2022-07-04T06:36:41;97825.19;;;18.27;54.62
26865;BME280;40618;51.166;10.322;2022-07-04T06:39:13;97815.88;;;18.38;54.66
26865;BME280;40618;51.166;10.322;2022-07-04T06:41:44;97829.22;;;18.49;54.67
26865;BME280;40618;51.166;10.322;2022-07-04T06:44:16;97818.22;;;18.58;54.56
26865;BME280;40618;51.166;10.322;2022-07-04T06:46:48;97819.91;;;18.59;54.48
26865;BME280;40618;51.166;10.322;2022-07-04T06:49:20;97826.56;;;18.65;54.49
26865;BME280;40618;51.166;10.322;2022-07-04T06:51:52;97827.81;;;18.74;54.24
26865;BME280;40618;51.166;10.322;2022-07-04T06:54:23;97827.16;;;18.70;54.20
26865;BME280;40618;51.166;10.322;2022-07-04T06:56:55;97820.81;;;18.74;54.07
26865;BME280;40618;51.166;10.322;2022-07-04T06:59:47;97827.66;;;18.77;54.16
26865;BME280;40618;51.166;10.322;2022-07-04T07:06:05;97815.56;;;18.74;54.00
26865;BME280;40618;51.166;10.322;2022-07-04T07:08:39;97820.72;;;18.76;54.04
26865;BME280;40618;51.166;10.322;2022-07-04T07:11:10;97814.69;;;18.74;53.91
26865;BME280;40618;51.166;10.322;2022-07-04T07:13:46;97813.69;;;18.76;54.01
26865;BME280;40618;51.166;10.322;2022-07-04T07:16:20;97806.00;;;18.73;53.98
26865;BME280;40618;51.166;10.322;2022-07-04T07:18:52;97811.56;;;18.83;53.95
26865;BME280;40618;51.166;10.322;2022-07-04T07:21:24;97797.84;;;18.94;53.50
26865;BME280;40618;51.166;10.322;2022-07-04T07:23:56;97795.41;;;18.91;53.39
26865;BME280;40618;51.166;10.322;2022-07-04T07:26:27;97796.78;;;18.82;53.07
26865;BME280;40618;51.166;10.322;2022-07-04T07:28:59;97795.69;;;18.70;53.12
26865;BME280;40618;51.166;10.322;2022-07-04T07:31:31;97793.06;;;18.70;53.21
26865;BME280;40618;51.166;10.322;2022-07-04T07:34:03;97790.06;;;18.76;53.32
26865;BME280;40618;51.166;10.322;2022-07-04T07:36:35;97791.00;;;18.91;53.22
26865;BME280;40618;51.166;10.322;2022-07-04T07:39:07;97788.31;;;19.07;52.93
26865;BME280;40618;51.166;10.322;2022-07-04T07:41:38;97794.03;;;19.14;52.80
26865;BME280;40618;51.166;10.322;2022-07-04T07:44:10;97784.59;;;19.26;52.85
26865;BME280;40618;51.166;10.322;2022-07-04T07:46:42;97786.16;;;19.28;52.17
26865;BME280;40618;51.166;10.322;2022-07-04T07:49:14;97786.75;;;19.19;52.11
26865;BME280;40618;51.166;10.322;2022-07-04T07:51:46;97779.91;;;19.17;52.29
26865;BME280;40618;51.166;10.322;2022-07-04T07:54:18;97782.63;;;19.30;52.09
26865;BME280;40618;51.166;10.322;2022-07-04T07:57:09;97780.66;;;19.33;52.05
26865;BME280;40618;51.166;10.322;2022-07-04T07:59:41;97773.34;;;19.38;52.14
26865;BME280;40618;51.166;10.322;2022-07-04T08:02:13;97768.47;;;19.47;51.91
26865;BME280;40618;51.166;10.322;2022-07-04T08:04:45;97772.13;;;19.58;51.90
26865;BME280;40618;51.166;10.322;2022-07-04T08:07:17;97768.19;;;19.51;51.62
26865;BME280;40618;51.166;10.322;2022-07-04T08:09:53;97772.31;;;19.55;51.87
26865;BME280;40618;51.166;10.322;2022-07-04T08:12:25;97776.25;;;19.77;51.51
26865;BME280;40618;51.166;10.322;2022-07-04T08:14:57;97769.22;;;19.92;51.39
26865;BME280;40618;51.166;10.322;2022-07-04T08:17:35;97770.91;;;19.93;51.23
26865;BME280;40618;51.166;10.322;2022-07-04T08:20:08;97770.03;;;19.92;51.39
26865;BME280;40618;51.166;10.322;2022-07-04T08:22:40;97775.28;;;19.92;51.36
26865;BME280;40618;51.166;10.322;2022-07-04T08:25:12;97780.47;;;19.79;51.10
26865;BME280;40618;51.166;10.322;2022-07-04T08:27:46;97780.47;;;19.65;51.43
26865;BME280;40618;51.166;10.322;2022-07-04T08:30:17;97777.38;;;19.73;51.41
26865;BME280;40618;51.166;10.322;2022-07-04T08:32:49;97780.19;;;19.70;51.35
26865;BME280;40618;51.166;10.322;2022-07-04T08:35:21;97771.34;;;19.71;51.23
26865;BME280;40618;51.166;10.322;2022-07-04T08:37:53;97776.34;;;19.75;51.16
26865;BME280;40618;51.166;10.322;2022-07-04T08:40:27;97773.06;;;19.86;51.14
26865;BME280;40618;51.166;10.322;2022-07-04T08:43:01;97776.09;;;20.07;51.27
26865;BME280;40618;51.166;10.322;2022-07-04T08:45:34;97772.13;;;20.29;50.81
26865;BME280;40618;51.166;10.322;2022-07-04T08:48:06;97771.00;;;20.19;50.58
26865;BME280;40618;51.166;10.322;2022-07-04T08:50:44;97770.50;;;19.99;50.55
26865;BME280;40618;51.166;10.322;2022-07-04T08:53:20;97771.75;;;19.93;50.75
26865;BME280;40618;51.166;10.322;2022-07-04T08:55:53;97766.41;;;20.22;50.43
26865;BME280;40618;51.166;10.322;2022-07-04T08:58:44;97760.47;;;20.46;50.42
26865;BME280;40618;51.166;10.322;2022-07-04T09:01:17;97772.03;;;20.71;50.31
26865;BME280;40618;51.166;10.322;2022-07-04T09:03:52;97773.72;;;20.72;49.90
26865;BME280;40618;51.166;10.322;2022-07-04T09:06:25;97765.25;;;20.54;49.96
26865;BME280;40618;51.166;10.322;2022-07-04T09:09:00;97767.22;;;20.50;50.12
26865;BME280;40618;51.166;10.322;2022-07-04T09:11:32;97766.53;;;20.34;49.83
26865;BME280;40618;51.166;10.322;2022-07-04T09:14:04;97763.97;;;20.19;50.06
26865;BME280;40618;51.166;10.322;2022-07-04T09:16:36;97769.34;;;20.18;50.01
26865;BME280;40618;51.166;10.322;2022-07-04T09:19:09;97762.25;;;20.33;50.23
26865;BME280;40618;51.166;10.322;2022-07-04T09:21:45;97766.94;;;20.55;50.24
26865;BME280;40618;51.166;10.322;2022-07-04T09:24:40;97762.06;;;20.76;50.10
26865;BME280;40618;51.166;10.322;2022-07-04T09:27:34;97759.69;;;20.99;49.59
26865;BME280;40618;51.166;10.322;2022-07-04T09:30:07;97757.59;;;21.17;49.43
26865;BME280;40618;51.166;10.322;2022-07-04T09:32:44;97750.63;;;21.41;49.35
26865;BME280;40618;51.166;10.322;2022-07-04T09:35:24;97750.28;;;21.72;49.26
26865;BME280;40618;51.166;10.322;2022-07-04T09:38:00;97754.06;;;21.80;48.46
26865;BME280;40618;51.166;10.322;2022-07-04T09:40:37;97764.44;;;21.58;48.63
26865;BME280;40618;51.166;10.322;2022-07-04T09:43:29;97757.03;;;21.37;48.27
26865;BME280;40618;51.166;10.322;2022-07-04T09:46:01;97751.88;;;21.36;48.69
26865;BME280;40618;51.166;10.322;2022-07-04T09:48:49;97743.88;;;21.50;48.69
26865;BME280;40618;51.166;10.322;2022-07-04T09:54:24;97746.31;;;21.53;48.18
26865;BME280;40618;51.166;10.322;2022-07-04T09:56:59;97736.31;;;21.58;48.25
26865;BME280;40618;51.166;10.322;2022-07-04T09:59:32;97744.06;;;21.73;48.08
26865;BME280;40618;51.166;10.322;2022-07-04T10:02:06;97744.59;;;21.78;47.60
26865;BME280;40618;51.166;10.322;2022-07-04T10:04:41;97751.53;;;21.79;47.84
26865;BME280;40618;51.166;10.322;2022-07-04T10:07:47;97740.94;;;21.92;47.42
26865;BME280;40618;51.166;10.322;2022-07-04T10:13:03;97734.44;;;22.33;47.06
26865;BME280;40618;51.166;10.322;2022-07-04T10:15:37;97728.53;;;22.42;46.68
26865;BME280;40618;51.166;10.322;2022-07-04T10:18:11;97726.94;;;22.64;46.63
26865;BME280;40618;51.166;10.322;2022-07-04T10:20:43;97738.72;;;22.71;45.90
26865;BME280;40618;51.166;10.322;2022-07-04T10:23:16;97731.22;;;22.54;45.45
26865;BME280;40618;51.166;10.322;2022-07-04T10:25:49;97736.88;;;22.60;45.35
26865;BME280;40618;51.166;10.322;2022-07-04T10:28:22;97726.50;;;22.81;45.57
26865;BME280;40618;51.166;10.322;2022-07-04T10:30:54;97713.44;;;23.03;45.08
26865;BME280;40618;51.166;10.322;2022-07-04T10:33:29;97717.34;;;23.21;44.96
26865;BME280;40618;51.166;10.322;2022-07-04T10:36:03;97710.63;;;23.40;44.94
26865;BME280;40618;51.166;10.322;2022-07-04T10:41:37;97712.06;;;23.55;44.24
26865;BME280;40618;51.166;10.322;2022-07-04T10:44:28;97717.81;;;23.60;43.99
26865;BME280;40618;51.166;10.322;2022-07-04T10:47:08;97712.06;;;23.55;43.40
26865;BME280;40618;51.166;10.322;2022-07-04T10:49:59;97706.19;;;23.40;43.42
26865;BME280;40618;51.166;10.322;2022-07-04T10:52:31;97715.16;;;23.15;43.51
26865;BME280;40618;51.166;10.322;2022-07-04T10:55:10;97713.28;;;23.17;43.63
26865;BME280;40618;51.166;10.322;2022-07-04T10:57:42;97713.75;;;23.34;43.63
26865;BME280;40618;51.166;10.322;2022-07-04T11:00:15;97708.22;;;23.59;43.27
26865;BME280;40618;51.166;10.322;2022-07-04T11:02:46;97702.31;;;23.90;43.15
26865;BME280;40618;51.166;10.322;2022-07-04T11:05:24;97713.88;;;24.21;42.83
26865;BME280;40618;51.166;10.322;2022-07-04T11:08:02;97708.53;;;24.32;42.47
26865;BME280;40618;51.166;10.322;2022-07-04T11:10:36;97713.13;;;24.19;42.02
26865;BME280;40618;51.166;10.322;2022-07-04T11:13:13;97716.81;;;23.73;41.68
26865;BME280;40618;51.166;10.322;2022-07-04T11:18:19;97714.81;;;23.65;41.89
26865;BME280;40618;51.166;10.322;2022-07-04T11:20:53;97722.03;;;23.74;42.00
26865;BME280;40618;51.166;10.322;2022-07-04T11:23:25;97713.31;;;23.83;41.70
26865;BME280;40618;51.166;10.322;2022-07-04T11:25:57;97708.63;;;23.87;41.62
26865;BME280;40618;51.166;10.322;2022-07-04T11:28:33;97720.94;;;23.88;41.53
26865;BME280;40618;51.166;10.322;2022-07-04T11:31:18;97725.69;;;24.06;41.57
26865;BME280;40618;51.166;10.322;2022-07-04T11:33:53;97715.91;;;24.17;41.02
26865;BME280;40618;51.166;10.322;2022-07-04T11:36:26;97704.84;;;24.24;40.86
26865;BME280;40618;51.166;10.322;2022-07-04T11:39:05;97717.28;;;24.33;40.77
26865;BME280;40618;51.166;10.322;2022-07-04T11:44:33;97713.84;;;24.65;40.62
26865;BME280;40618;51.166;10.322;2022-07-04T11:47:36;97722.09;;;24.60;40.14
26865;BME280;40618;51.166;10.322;2022-07-04T11:50:11;97711.66;;;24.59;40.13
26865;BME280;40618;51.166;10.322;2022-07-04T11:52:48;97709.13;;;24.57;40.08
26865;BME280;40618;51.166;10.322;2022-07-04T11:55:54;97709.00;;;24.59;39.75
26865;BME280;40618;51.166;10.322;2022-07-04T11:58:40;97715.94;;;24.71;40.08
26865;BME280;40618;51.166;10.322;2022-07-04T12:01:13;97720.28;;;24.93;39.84
26865;BME280;40618;51.166;10.322;2022-07-04T12:04:10;97720.06;;;25.06;39.34
26865;BME280;40618;51.166;10.322;2022-07-04T12:06:51;97711.22;;;24.96;39.20
26865;BME280;40618;51.166;10.322;2022-07-04T12:09:23;97714.28;;;24.91;39.25
26865;BME280;40618;51.166;10.322;2022-07-04T12:11:56;97705.63;;;24.89;39.07
26865;BME280;40618;51.166;10.322;2022-07-04T12:14:29;97703.50;;;24.83;39.14
26865;BME280;40618;51.166;10.322;2022-07-04T12:17:11;97707.19;;;24.71;39.02
26865;BME280;40618;51.166;10.322;2022-07-04T12:19:54;97696.56;;;24.92;39.19
26865;BME280;40618;51.166;10.322;2022-07-04T12:22:34;97688.63;;;25.23;38.71
26865;BME280;40618;51.166;10.322;2022-07-04T12:25:19;97693.06;;;25.12;38.61
26865;BME280;40618;51.166;10.322;2022-07-04T12:27:58;97692.06;;;24.82;38.67
26865;BME280;40618;51.166;10.322;2022-07-04T12:30:54;97691.31;;;24.59;39.23
26865;BME280;40618;51.166;10.322;2022-07-04T12:33:28;97688.19;;;24.65;39.18
26865;BME280;40618;51.166;10.322;2022-07-04T12:36:01;97679.59;;;24.73;39.06
26865;BME280;40618;51.166;10.322;2022-07-04T12:38:35;97682.44;;;24.81;39.13
26865;BME280;40618;51.166;10.322;2022-07-04T12:41:09;97680.66;;;24.92;39.20
26865;BME280;40618;51.166;10.322;2022-07-04T12:46:26;97672.72;;;24.92;39.12
26865;BME280;40618;51.166;10.322;2022-07-04T12:49:01;97672.13;;;25.09;38.87
26865;BME280;40618;51.166;10.322;2022-07-04T12:51:34;97670.75;;;25.15;39.01
26865;BME280;40618;51.166;10.322;2022-07-04T12:54:07;97666.28;;;25.46;38.96
26865;BME280;40618;51.166;10.322;2022-07-04T12:56:41;97675.13;;;25.66;38.66
26865;BME280;40618;51.166;10.322;2022-07-04T12:59:16;97680.44;;;25.66;38.74
26865;BME280;40618;51.166;10.322;2022-07-04T13:01:51;97687.44;;;25.67;38.43
26865;BME280;40618;51.166;10.322;2022-07-04T13:04:23;97682.44;;;25.33;38.18
26865;BME280;40618;51.166;10.322;2022-07-04T13:06:55;97667.31;;;24.93;38.00
26865;BME280;40618;51.166;10.322;2022-07-04T13:09:26;97675.53;;;24.69;38.37
26865;BME280;40618;51.166;10.322;2022-07-04T13:11:59;97680.38;;;24.64;38.38
26865;BME280;40618;51.166;10.322;2022-07-04T13:14:49;97674.44;;;24.72;38.57
26865;BME280;40618;51.166;10.322;2022-07-04T13:17:31;97675.56;;;25.00;38.47
26865;BME280;40618;51.166;10.322;2022-07-04T13:20:03;97670.19;;;25.11;38.37
26865;BME280;40618;51.166;10.322;2022-07-04T13:22:36;97688.63;;;25.23;38.31
26865;BME280;40618;51.166;10.322;2022-07-04T13:25:07;97678.03;;;25.23;38.14
26865;BME280;40618;51.166;10.322;2022-07-04T13:27:40;97675.81;;;25.18;38.05
26865;BME280;40618;51.166;10.322;2022-07-04T13:30:12;97670.81;;;25.25;37.80
26865;BME280;40618;51.166;10.322;2022-07-04T13:32:44;97680.78;;;25.42;37.70
26865;BME280;40618;51.166;10.322;2022-07-04T13:35:16;97678.59;;;25.57;37.45
26865;BME280;40618;51.166;10.322;2022-07-04T13:37:48;97682.50;;;25.63;37.63
26865;BME280;40618;51.166;10.322;2022-07-04T13:40:20;97680.03;;;25.71;37.40
26865;BME280;40618;51.166;10.322;2022-07-04T13:42:51;97686.72;;;25.65;37.26
26865;BME280;40618;51.166;10.322;2022-07-04T13:45:29;97677.63;;;25.58;37.33
26865;BME280;40618;51.166;10.322;2022-07-04T13:48:01;97660.63;;;25.61;37.43